createdAt,value
2018-04-22T00:01:57.619Z,14.49
2018-04-22T00:04:25.019Z,14.49
2018-04-22T00:06:52.508Z,14.52
2018-04-22T00:09:19.987Z,14.46
2018-04-22T00:11:47.385Z,14.45
2018-04-22T00:14:14.788Z,14.35
2018-04-22T00:16:42.201Z,14.09
2018-04-22T00:19:10.016Z,14.15
2018-04-22T00:21:37.417Z,14.06
2018-04-22T00:24:04.813Z,14.12
2018-04-22T00:26:32.323Z,14.02
2018-04-22T00:28:59.728Z,13.95
2018-04-22T00:31:27.885Z,13.90
2018-04-22T00:33:55.377Z,13.93
2018-04-22T00:36:22.791Z,13.93
2018-04-22T00:38:50.201Z,14.01
2018-04-22T00:41:17.615Z,14.01
2018-04-22T00:43:45.345Z,14.12
2018-04-22T00:46:12.728Z,14.18
2018-04-22T00:48:40.136Z,14.23
2018-04-22T00:51:07.516Z,13.97
2018-04-22T00:56:37.935Z,13.98
2018-04-22T00:59:05.342Z,14.00
2018-04-22T01:01:32.730Z,14.00
2018-04-22T01:04:00.134Z,14.02
2018-04-22T01:06:27.520Z,13.98
2018-04-22T01:08:54.921Z,13.90
2018-04-22T01:11:22.407Z,13.79
2018-04-22T01:13:49.799Z,13.83
2018-04-22T01:16:17.204Z,13.87
2018-04-22T01:18:44.680Z,13.93
2018-04-22T01:21:12.153Z,13.96
2018-04-22T01:23:39.544Z,13.97
2018-04-22T01:26:06.951Z,13.89
2018-04-22T01:28:34.349Z,13.83
2018-04-22T01:31:01.749Z,13.77
2018-04-22T01:33:29.151Z,13.69
2018-04-22T01:35:56.554Z,13.66
2018-04-22T01:38:24.841Z,13.59
2018-04-22T01:40:52.243Z,13.45
2018-04-22T01:43:19.643Z,13.41
2018-04-22T01:45:47.048Z,13.43
2018-04-22T01:48:14.453Z,13.45
2018-04-22T01:50:41.844Z,13.36
2018-04-22T01:53:09.724Z,13.26
2018-04-22T01:55:37.131Z,13.13
2018-04-22T01:58:04.536Z,13.14
2018-04-22T02:00:31.946Z,13.13
2018-04-22T02:02:59.352Z,13.11
2018-04-22T02:05:26.760Z,13.16
2018-04-22T02:07:54.183Z,13.11
2018-04-22T02:10:21.589Z,13.09
2018-04-22T02:12:49.897Z,13.05
2018-04-22T02:15:17.292Z,12.97
2018-04-22T02:17:44.697Z,12.85
2018-04-22T02:20:12.135Z,12.70
2018-04-22T02:22:39.539Z,12.72
2018-04-22T02:25:06.943Z,12.62
2018-04-22T02:27:34.347Z,12.55
2018-04-22T02:30:03.056Z,12.61
2018-04-22T02:32:30.454Z,12.67
2018-04-22T02:34:57.852Z,12.66
2018-04-22T02:37:25.272Z,12.69
2018-04-22T02:39:52.655Z,12.69
2018-04-22T02:42:20.068Z,12.66
2018-04-22T02:44:47.466Z,12.65
2018-04-22T02:47:14.872Z,12.68
2018-04-22T02:49:42.260Z,12.57
2018-04-22T02:52:09.664Z,12.50
2018-04-22T02:54:37.105Z,12.42
2018-04-22T02:57:05.277Z,12.47
2018-04-22T02:59:32.675Z,12.42
2018-04-22T03:02:00.070Z,12.40
2018-04-22T03:04:27.597Z,12.37
2018-04-22T03:06:54.991Z,12.41
2018-04-22T03:09:22.385Z,12.44
2018-04-22T03:11:50.006Z,12.32
2018-04-22T03:14:17.383Z,12.29
2018-04-22T03:16:44.781Z,12.30
2018-04-22T03:19:12.181Z,12.26
2018-04-22T03:21:39.719Z,12.23
2018-04-22T03:24:07.114Z,12.12
2018-04-22T03:26:34.940Z,12.04
2018-04-22T03:29:02.351Z,12.06
2018-04-22T03:31:29.744Z,12.07
2018-04-22T03:33:57.189Z,12.05
2018-04-22T03:36:24.586Z,11.98
2018-04-22T03:38:51.976Z,11.88
2018-04-22T03:41:19.551Z,11.87
2018-04-22T03:43:46.966Z,12.01
2018-04-22T03:46:14.353Z,11.95
2018-04-22T03:48:41.884Z,11.85
2018-04-22T03:51:09.268Z,11.70
2018-04-22T03:53:36.673Z,11.62
2018-04-22T03:56:04.077Z,11.59
2018-04-22T03:58:31.613Z,11.65
2018-04-22T04:00:59.006Z,11.57
2018-04-22T04:03:26.418Z,11.44
2018-04-22T04:05:53.826Z,11.45
2018-04-22T04:08:21.464Z,11.43
2018-04-22T04:10:48.867Z,11.40
2018-04-22T04:13:16.631Z,11.40
2018-04-22T04:15:44.171Z,11.42
2018-04-22T04:21:36.365Z,11.57
2018-04-22T04:27:24.892Z,11.69
2018-04-22T04:29:52.415Z,11.75
2018-04-22T04:32:19.802Z,11.69
2018-04-22T04:34:47.204Z,11.60
2018-04-22T04:37:14.600Z,11.52
2018-04-22T04:39:42.245Z,11.59
2018-04-22T04:42:09.632Z,11.68
2018-04-22T04:44:37.048Z,11.64
2018-04-22T04:47:04.483Z,11.72
2018-04-22T04:49:31.891Z,11.69
2018-04-22T04:51:59.295Z,11.68
2018-04-22T04:54:26.750Z,11.66
2018-04-22T04:56:54.262Z,11.59
2018-04-22T04:59:21.676Z,11.57
2018-04-22T05:01:49.068Z,11.70
2018-04-22T05:04:16.475Z,11.86
2018-04-22T05:06:44.028Z,12.00
2018-04-22T05:09:11.437Z,12.20
2018-04-22T05:11:38.831Z,12.14
2018-04-22T05:14:06.269Z,12.13
2018-04-22T05:16:33.736Z,12.23
2018-04-22T05:19:01.151Z,12.29
2018-04-22T05:21:28.533Z,12.41
2018-04-22T05:23:56.167Z,12.54
2018-04-22T05:26:24.009Z,12.56
2018-04-22T05:28:51.420Z,12.57
2018-04-22T05:31:18.876Z,12.73
2018-04-22T05:33:46.268Z,12.93
2018-04-22T05:36:13.672Z,12.97
2018-04-22T05:38:41.270Z,13.22
2018-04-22T05:41:08.852Z,13.49
2018-04-22T05:43:36.241Z,13.69
2018-04-22T05:46:03.659Z,13.91
2018-04-22T05:48:31.107Z,14.08
2018-04-22T05:50:58.564Z,14.28
2018-04-22T05:53:25.952Z,14.53
2018-04-22T05:55:53.388Z,14.49
2018-04-22T05:58:21.054Z,14.51
2018-04-22T06:00:48.448Z,14.78
2018-04-22T06:03:15.840Z,15.78
2018-04-22T06:05:43.257Z,16.82
2018-04-22T06:08:11.039Z,17.14
2018-04-22T06:10:38.445Z,16.56
2018-04-22T06:13:05.832Z,15.87
2018-04-22T06:15:33.386Z,16.37
2018-04-22T06:18:00.937Z,16.57
2018-04-22T06:20:28.641Z,16.72
2018-04-22T06:22:56.032Z,16.58
2018-04-22T06:25:23.467Z,16.52
2018-04-22T06:27:50.864Z,16.50
2018-04-22T06:30:18.275Z,16.37
2018-04-22T06:32:45.671Z,16.35
2018-04-22T06:35:13.868Z,16.63
2018-04-22T06:37:41.281Z,16.43
2018-04-22T06:40:08.688Z,16.69
2018-04-22T06:42:36.448Z,16.91
2018-04-22T06:45:03.840Z,17.17
2018-04-22T06:47:31.248Z,17.34
2018-04-22T06:49:58.708Z,17.44
2018-04-22T06:52:26.181Z,17.51
2018-04-22T06:54:53.635Z,17.71
2018-04-22T06:57:21.069Z,17.86
2018-04-22T06:59:48.489Z,17.94
2018-04-22T07:02:16.672Z,18.09
2018-04-22T07:04:44.545Z,18.23
2018-04-22T07:07:12.800Z,18.30
2018-04-22T07:09:40.193Z,18.23
2018-04-22T07:12:07.588Z,17.97
2018-04-22T07:14:35.373Z,18.05
2018-04-22T07:17:02.899Z,18.29
2018-04-22T07:19:30.295Z,18.50
2018-04-22T07:21:58.408Z,18.60
2018-04-22T07:24:25.803Z,18.82
2018-04-22T07:26:54.222Z,19.08
2018-04-22T07:29:21.688Z,19.31
2018-04-22T07:31:49.886Z,19.33
2018-04-22T07:34:18.180Z,19.23
2018-04-22T07:36:45.579Z,19.49
2018-04-22T07:39:13.111Z,19.51
2018-04-22T07:41:40.851Z,19.77
2018-04-22T07:44:10.707Z,19.96
2018-04-22T07:46:38.134Z,20.09
2018-04-22T07:49:05.521Z,20.11
2018-04-22T07:51:32.922Z,19.56
2018-04-22T07:54:00.331Z,19.59
2018-04-22T07:56:27.724Z,19.79
2018-04-22T07:58:55.398Z,20.11
2018-04-22T08:01:23.164Z,20.37
2018-04-22T08:03:53.189Z,20.22
2018-04-22T08:06:25.738Z,20.20
2018-04-22T08:08:53.220Z,20.41
2018-04-22T08:11:20.623Z,20.51
2018-04-22T08:13:49.109Z,20.55
2018-04-22T08:16:16.796Z,20.64
2018-04-22T08:18:44.196Z,20.67
2018-04-22T08:21:11.590Z,20.84
2018-04-22T08:23:39.092Z,20.99
2018-04-22T08:26:06.439Z,20.78
2018-04-22T08:28:33.852Z,20.96
2018-04-22T08:31:04.135Z,21.15
2018-04-22T08:33:33.776Z,21.33
2018-04-22T08:36:02.342Z,21.34
2018-04-22T08:38:31.645Z,21.62
2018-04-22T08:41:02.046Z,21.89
2018-04-22T08:43:31.287Z,22.12
2018-04-22T08:45:59.193Z,21.89
2018-04-22T08:48:27.576Z,22.13
2018-04-22T08:50:57.673Z,22.26
2018-04-22T08:53:26.297Z,22.42
2018-04-22T08:55:56.527Z,22.60
2018-04-22T09:15:42.118Z,22.90
2018-04-22T09:18:11.988Z,23.15
2018-04-22T09:20:41.036Z,23.29
2018-04-22T09:23:10.647Z,23.35
2018-04-22T09:25:40.130Z,23.62
2018-04-22T09:28:09.359Z,23.81
2018-04-22T09:30:37.835Z,24.07
2018-04-22T09:33:08.049Z,24.20
2018-04-22T09:35:36.949Z,24.10
2018-04-22T09:38:07.074Z,23.89
2018-04-22T09:40:36.236Z,23.97
2018-04-22T09:43:18.322Z,24.12
2018-04-22T09:49:08.864Z,24.44
2018-04-22T09:51:38.199Z,24.30
2018-04-22T09:54:07.611Z,24.41
2018-04-22T09:56:36.988Z,24.48
2018-04-22T09:59:06.501Z,24.66
2018-04-22T10:01:37.716Z,24.80
2018-04-22T10:04:10.438Z,24.85
2018-04-22T10:06:39.262Z,25.01
2018-04-22T10:09:09.192Z,24.99
2018-04-22T10:11:38.885Z,25.19
2018-04-22T10:14:10.388Z,25.18
2018-04-22T10:16:39.917Z,25.29
2018-04-22T10:19:14.869Z,25.21
2018-04-22T10:21:46.233Z,25.30
2018-04-22T10:24:15.190Z,25.23
2018-04-22T10:26:45.992Z,25.20
2018-04-22T10:29:15.998Z,25.25
2018-04-22T10:31:45.893Z,25.36
2018-04-22T10:34:13.275Z,25.55
2018-04-22T10:36:40.693Z,25.86
2018-04-22T10:39:08.081Z,26.13
2018-04-22T10:41:35.491Z,26.16
2018-04-22T10:44:02.880Z,26.28
2018-04-22T10:46:30.918Z,26.16
2018-04-22T10:48:58.390Z,26.25
2018-04-22T10:51:26.691Z,26.36
2018-04-22T10:53:54.248Z,26.54
2018-04-22T10:56:21.633Z,26.63
2018-04-22T10:58:49.067Z,26.58
2018-04-22T11:01:19.516Z,26.60
2018-04-22T11:03:46.939Z,26.52
2018-04-22T11:06:15.125Z,26.58
2018-04-22T11:08:42.500Z,26.68
2018-04-22T11:11:09.897Z,26.75
2018-04-22T11:13:37.403Z,26.92
2018-04-22T11:16:04.780Z,26.84
2018-04-22T11:18:32.167Z,27.00
2018-04-22T11:20:59.568Z,27.02
2018-04-22T11:23:27.077Z,27.21
2018-04-22T11:25:54.451Z,27.06
2018-04-22T15:01:32.900Z,28.86
2018-04-22T15:04:01.214Z,28.90
2018-04-22T15:06:29.587Z,29.08
2018-04-22T15:08:56.987Z,28.95
2018-04-22T15:11:24.571Z,28.87
2018-04-22T15:13:51.951Z,28.81
2018-04-22T15:16:19.350Z,28.77
2018-04-22T15:18:46.745Z,28.89
2018-04-22T15:21:14.133Z,28.87
2018-04-22T15:23:41.657Z,28.95
2018-04-22T15:26:09.079Z,28.94
2018-04-22T15:28:36.469Z,29.20
2018-04-22T15:31:04.088Z,29.05
2018-04-22T15:33:33.500Z,29.08
2018-04-22T15:36:01.245Z,29.00
2018-04-22T15:38:28.642Z,28.97
2018-04-22T15:40:56.064Z,28.81
2018-04-22T15:43:23.464Z,28.92
2018-04-22T15:45:50.849Z,28.81
2018-04-22T15:48:18.825Z,28.63
2018-04-22T15:50:46.208Z,28.85
2018-04-22T15:53:13.613Z,28.92
2018-04-22T15:55:41.432Z,28.90
2018-04-22T15:58:08.855Z,28.84
2018-04-22T16:00:36.221Z,28.72
2018-04-22T16:03:03.611Z,28.85
2018-04-22T16:05:31.932Z,28.85
2018-04-22T16:07:59.330Z,28.89
2018-04-22T16:10:26.732Z,28.73
2018-04-22T16:12:54.560Z,28.71
2018-04-22T16:15:22.139Z,28.71
2018-04-22T16:17:49.527Z,28.85
2018-04-22T16:20:16.917Z,28.85
2018-04-22T16:22:44.331Z,28.92
2018-04-22T16:25:11.734Z,28.90
2018-04-22T16:27:39.132Z,29.01
2018-04-22T16:30:06.898Z,28.54
2018-04-22T16:32:34.302Z,28.34
2018-04-22T16:35:01.697Z,28.12
2018-04-22T16:37:29.089Z,28.08
2018-04-22T16:39:56.540Z,28.19
2018-04-22T16:42:24.136Z,28.25
2018-04-22T16:44:51.565Z,28.10
2018-04-22T16:47:19.278Z,27.88
2018-04-22T16:49:47.668Z,27.93
2018-04-22T16:52:15.067Z,27.66
2018-04-22T16:54:42.467Z,27.32
2018-04-22T16:57:11.311Z,27.23
2018-04-22T16:59:38.718Z,26.84
2018-04-22T17:02:06.118Z,26.71
2018-04-22T17:04:34.324Z,26.62
2018-04-22T17:07:01.720Z,26.45
2018-04-22T17:09:29.115Z,26.21
2018-04-22T17:11:56.492Z,26.08
2018-04-22T17:14:23.896Z,25.86
2018-04-22T17:16:51.289Z,25.69
2018-04-22T17:19:18.685Z,25.71
2018-04-22T17:21:46.068Z,25.72
2018-04-22T17:24:13.490Z,25.54
2018-04-22T17:26:41.089Z,25.45
2018-04-22T17:29:08.853Z,25.56
2018-04-22T17:31:36.341Z,25.53
2018-04-22T17:34:03.767Z,25.40
2018-04-22T17:36:31.152Z,25.32
2018-04-22T17:38:58.618Z,25.13
2018-04-22T17:41:26.014Z,24.98
2018-04-22T17:43:53.439Z,24.93
2018-04-22T17:46:20.850Z,24.81
2018-04-22T17:48:48.243Z,24.81
2018-04-22T17:51:16.600Z,24.73
2018-04-22T17:53:44.065Z,24.77
2018-04-22T17:56:12.124Z,24.60
2018-04-22T17:58:39.508Z,24.50
2018-04-22T18:01:06.905Z,24.11
2018-04-22T18:03:34.514Z,24.32
2018-04-22T18:06:01.903Z,24.36
2018-04-22T18:08:29.295Z,24.30
2018-04-22T18:10:57.321Z,24.36
2018-04-22T18:13:24.722Z,24.24
2018-04-22T18:15:52.115Z,24.21
2018-04-22T18:18:19.496Z,24.13
2018-04-22T18:20:47.332Z,24.19
2018-04-22T18:23:15.437Z,24.15
2018-04-22T18:25:42.844Z,24.16
2018-04-22T18:28:10.219Z,24.05
2018-04-22T18:30:38.103Z,23.96
2018-04-22T18:33:05.497Z,23.99
2018-04-22T18:35:33.617Z,23.77
2018-04-22T18:38:01.001Z,23.64
2018-04-22T18:40:28.400Z,23.42
2018-04-22T18:42:55.789Z,23.37
2018-04-22T18:45:23.473Z,23.28
2018-04-22T18:47:50.877Z,23.12
2018-04-22T18:50:18.272Z,23.09
2018-04-22T18:52:45.663Z,23.12
2018-04-22T18:55:13.074Z,23.20
2018-04-22T18:57:40.465Z,23.13
2018-04-22T19:00:07.853Z,23.17
2018-04-22T19:02:35.285Z,23.04
2018-04-22T19:05:02.634Z,23.01
2018-04-22T19:07:30.030Z,22.88
2018-04-22T19:09:57.427Z,22.87
2018-04-22T19:12:24.816Z,22.85
2018-04-22T19:14:52.224Z,22.79
2018-04-22T19:17:19.666Z,22.61
2018-04-22T19:19:47.003Z,22.58
2018-04-22T19:22:14.401Z,22.41
2018-04-22T19:24:41.781Z,22.34
2018-04-22T19:27:09.183Z,22.41
2018-04-22T19:29:36.586Z,22.29
2018-04-22T19:32:03.970Z,22.22
2018-04-22T19:34:31.407Z,22.30
2018-04-22T19:36:58.791Z,22.23
2018-04-22T19:39:26.181Z,22.05
2018-04-22T19:41:53.584Z,22.01
2018-04-22T19:44:20.987Z,21.89
2018-04-22T19:46:48.369Z,21.90
2018-04-22T19:49:15.752Z,22.05
2018-04-22T19:51:43.158Z,22.01
2018-04-22T19:54:10.533Z,21.93
2018-04-22T19:56:38.061Z,21.97
2018-04-22T19:59:05.442Z,21.89
2018-04-22T20:01:32.911Z,21.83
2018-04-22T20:04:00.283Z,21.67
2018-04-22T20:06:27.681Z,21.60
2018-04-22T20:08:55.363Z,21.47
2018-04-22T20:11:22.747Z,21.38
2018-04-22T20:13:50.864Z,21.23
2018-04-22T20:16:18.263Z,21.19
2018-04-22T20:18:45.653Z,21.14
2018-04-22T20:21:13.482Z,20.95
2018-04-22T20:23:40.855Z,20.91
2018-04-22T20:26:08.249Z,20.84
2018-04-22T20:28:35.864Z,20.75
2018-04-22T20:31:03.236Z,20.72
2018-04-22T20:33:30.936Z,20.65
2018-04-22T20:35:58.323Z,20.54
2018-04-22T20:38:25.719Z,20.50
2018-04-22T20:40:53.176Z,20.47
2018-04-22T20:43:20.572Z,20.43
2018-04-22T20:45:48.156Z,20.35
2018-04-22T20:48:15.547Z,20.21
2018-04-22T20:50:42.928Z,20.08
2018-04-22T20:53:10.342Z,19.93
2018-04-22T20:55:37.716Z,19.96
2018-04-22T20:58:05.126Z,19.80
2018-04-22T21:00:32.505Z,19.73
2018-04-22T21:02:59.892Z,19.68
2018-04-22T21:05:27.278Z,19.66
2018-04-22T21:07:54.838Z,19.62
2018-04-22T21:10:22.221Z,19.55
2018-04-22T21:12:49.602Z,19.50
2018-04-22T21:15:17.728Z,19.38
2018-04-22T21:17:45.121Z,19.36
2018-04-22T21:20:13.377Z,19.35
2018-04-22T21:22:40.861Z,19.29
2018-04-22T21:25:08.280Z,19.21
2018-04-22T21:27:35.671Z,19.15
2018-04-22T21:30:03.064Z,19.08
2018-04-22T21:32:30.859Z,19.03
2018-04-22T21:34:58.259Z,18.96
2018-04-22T21:37:25.638Z,18.96
2018-04-22T21:39:53.088Z,18.91
2018-04-22T21:42:20.512Z,18.83
2018-04-22T21:44:47.904Z,18.82
2018-04-22T21:47:15.675Z,18.80
2018-04-22T21:49:43.766Z,18.81
2018-04-22T21:52:11.155Z,18.84
2018-04-22T21:54:38.557Z,18.90
2018-04-22T21:57:05.963Z,18.91
2018-04-22T22:02:38.048Z,18.87
2018-04-22T22:05:05.806Z,18.93
2018-04-22T22:07:33.502Z,18.94
2018-04-22T22:10:01.014Z,18.97
2018-04-22T22:12:28.404Z,18.95
2018-04-22T22:14:55.793Z,18.95
2018-04-22T22:17:23.176Z,18.91
2018-04-22T22:19:50.574Z,18.87
2018-04-22T22:22:17.954Z,18.84
2018-04-22T22:24:45.350Z,18.82
2018-04-22T22:27:13.008Z,18.73
2018-04-22T22:29:40.429Z,18.64
2018-04-22T22:32:07.819Z,18.72
2018-04-22T22:34:35.304Z,18.68
2018-04-22T22:37:02.695Z,18.61
2018-04-22T22:39:30.068Z,18.59
2018-04-22T22:41:57.468Z,18.52
2018-04-22T22:44:24.856Z,18.44
2018-04-22T22:46:52.418Z,18.42
2018-04-22T22:49:19.801Z,18.34
2018-04-22T22:51:48.439Z,18.36
2018-04-22T22:54:15.841Z,18.39
2018-04-22T22:56:43.246Z,18.36
2018-04-22T22:59:11.337Z,18.43
2018-04-22T23:01:38.731Z,18.38
2018-04-22T23:04:06.112Z,18.37
2018-04-22T23:06:33.527Z,18.42
2018-04-22T23:09:00.907Z,18.42
2018-04-22T23:11:28.468Z,18.44
2018-04-22T23:13:56.381Z,18.47
2018-04-22T23:16:23.805Z,18.52
2018-04-22T23:18:51.414Z,18.50
2018-04-22T23:21:18.817Z,18.49
2018-04-22T23:23:46.195Z,18.45
2018-04-22T23:26:13.599Z,18.42
2018-04-22T23:28:40.977Z,18.32
2018-04-22T23:31:08.368Z,18.27
2018-04-22T23:33:35.761Z,18.13
2018-04-22T23:36:03.224Z,18.07
2018-04-22T23:38:30.638Z,18.06
2018-04-22T23:40:58.028Z,18.00
2018-04-22T23:43:25.427Z,18.00
2018-04-22T23:45:52.906Z,17.90
2018-04-22T23:48:20.301Z,17.81
2018-04-22T23:50:47.681Z,17.75
2018-04-22T23:53:15.070Z,17.68
2018-04-22T23:55:42.503Z,17.61
2018-04-22T23:58:09.892Z,17.59
